Time;durP1;ratioP1;P1;durP2;ratioP2;P2;SDS_P1;SDS_P2;PMS_P1;PMS_P2;Temp;Humidity;BMP_temperature;BMP_pressure;BME280_temperature;BME280_humidity;BME280_pressure;Samples;Min_cycle;Max_cycle;Signal;HPM_P1;HPM_P2
2021/10/31 00:00:34;;;;;;;59.47;30.40;;;3.60;99.90;;;;;;4174723;28;20278;-63
2021/10/31 00:02:35;;;;;;;64.10;30.73;;;3.50;99.90;;;;;;4184433;28;20281;-65
2021/10/31 00:04:36;;;;;;;66.93;32.13;;;3.50;99.90;;;;;;4191642;28;20261;-64
2021/10/31 00:06:38;;;;;;;66.17;30.70;;;3.40;99.90;;;;;;4190425;28;20307;-62
2021/10/31 00:08:39;;;;;;;63.77;31.23;;;3.50;99.90;;;;;;4189707;28;21261;-60
2021/10/31 00:10:40;;;;;;;61.13;29.77;;;3.40;99.90;;;;;;4188728;28;20339;-61
2021/10/31 00:12:41;;;;;;;64.00;31.20;;;3.40;99.90;;;;;;4190572;28;20804;-63
2021/10/31 00:14:42;;;;;;;62.80;30.83;;;3.30;99.90;;;;;;4190565;28;20277;-63
2021/10/31 00:16:43;;;;;;;63.87;30.90;;;3.30;99.90;;;;;;4190682;28;20292;-61
2021/10/31 00:18:45;;;;;;;58.53;29.87;;;3.30;99.90;;;;;;4187573;28;20333;-66
2021/10/31 00:20:46;;;;;;;63.27;30.43;;;3.30;99.90;;;;;;4190889;28;20265;-61
2021/10/31 00:22:47;;;;;;;63.50;28.60;;;3.30;99.90;;;;;;4190266;28;20269;-64
2021/10/31 00:24:49;;;;;;;62.80;30.33;;;3.30;99.90;;;;;;4191031;28;20885;-68
2021/10/31 00:26:50;;;;;;;65.40;31.83;;;3.30;99.90;;;;;;4183077;28;20286;-66
2021/10/31 00:28:51;;;;;;;58.10;30.87;;;3.30;99.90;;;;;;4174273;28;20278;-63
2021/10/31 00:30:53;;;;;;;65.07;29.70;;;3.30;99.90;;;;;;4174005;28;20277;-67
2021/10/31 00:32:54;;;;;;;63.13;31.23;;;3.30;99.90;;;;;;4174109;28;20274;-63
2021/10/31 00:34:56;;;;;;;61.50;29.53;;;3.30;99.90;;;;;;4174745;28;20278;-65
2021/10/31 00:36:57;;;;;;;59.93;29.03;;;3.30;99.90;;;;;;4173604;28;20738;-67
2021/10/31 00:38:58;;;;;;;61.80;30.03;;;3.20;99.90;;;;;;4173888;28;20306;-64
2021/10/31 00:40:59;;;;;;;57.27;28.77;;;3.20;99.90;;;;;;4184317;28;20285;-63
2021/10/31 00:43:00;;;;;;;57.73;29.13;;;3.20;99.90;;;;;;4190827;28;20331;-63
2021/10/31 00:45:02;;;;;;;59.83;28.00;;;3.10;99.90;;;;;;4190387;28;20274;-65
2021/10/31 00:47:04;;;;;;;54.77;28.23;;;3.00;99.90;;;;;;4189847;28;20257;-62
2021/10/31 00:49:05;;;;;;;54.13;27.63;;;3.00;99.90;;;;;;4190525;28;20266;-62
2021/10/31 00:51:06;;;;;;;56.63;27.20;;;2.90;99.90;;;;;;4190659;28;20319;-65
2021/10/31 00:53:08;;;;;;;56.33;27.27;;;2.90;99.90;;;;;;4175440;28;20309;-62
2021/10/31 00:55:09;;;;;;;51.77;28.07;;;2.90;99.90;;;;;;4174036;28;20262;-67
2021/10/31 00:57:11;;;;;;;54.07;27.23;;;3.00;99.90;;;;;;4173548;28;20748;-58
2021/10/31 00:59:12;;;;;;;55.23;25.60;;;3.00;99.90;;;;;;4173609;28;20352;-65
2021/10/31 01:01:13;;;;;;;50.23;25.60;;;2.90;99.90;;;;;;4173469;28;20340;-62
2021/10/31 01:03:14;;;;;;;54.00;26.77;;;3.00;99.90;;;;;;4173726;28;20293;-66
2021/10/31 01:05:25;;;;;;;53.93;25.97;;;2.90;99.90;;;;;;4174027;28;20278;-66
2021/10/31 01:07:50;;;;;;;57.03;26.27;;;2.90;99.90;;;;;;4172956;28;20274;-66
2021/10/31 01:10:27;;;;;;;53.50;27.40;;;2.90;99.90;;;;;;4173456;28;20704;-64
2021/10/31 01:12:52;;;;;;;46.90;23.70;;;2.90;99.90;;;;;;4173297;28;20827;-61
2021/10/31 01:15:24;;;;;;;49.03;25.40;;;2.80;99.90;;;;;;4173369;28;20266;-63
2021/10/31 01:17:46;;;;;;;52.40;25.77;;;2.70;99.90;;;;;;4146627;28;20298;-63
2021/10/31 01:19:53;;;;;;;50.00;24.50;;;2.70;99.90;;;;;;4173123;28;20756;-62
2021/10/31 01:22:33;;;;;;;54.90;26.13;;;2.60;99.90;;;;;;4173698;28;20278;-67
2021/10/31 01:24:55;;;;;;;54.57;25.90;;;2.60;99.90;;;;;;4141975;28;20292;-60
2021/10/31 01:27:06;;;;;;;49.33;24.87;;;2.50;99.90;;;;;;4173916;28;20424;-61
2021/10/31 01:29:19;;;;;;;48.85;24.73;;;2.50;99.90;;;;;;4173196;28;20312;-64
2021/10/31 01:31:51;;;;;;;50.37;22.33;;;2.40;99.90;;;;;;4173104;28;20756;-64
2021/10/31 01:34:07;;;;;;;49.10;23.40;;;2.40;99.90;;;;;;4173456;28;20274;-63
2021/10/31 01:36:27;;;;;;;45.30;23.33;;;2.40;99.90;;;;;;4173255;28;20765;-61
2021/10/31 01:38:48;;;;;;;50.73;23.93;;;2.40;99.90;;;;;;4173045;28;20347;-63
2021/10/31 01:41:14;;;;;;;51.97;24.20;;;2.40;99.90;;;;;;4173794;28;20340;-62
2021/10/31 01:43:40;;;;;;;46.47;23.23;;;2.40;99.90;;;;;;4173373;28;20266;-61
2021/10/31 01:46:04;;;;;;;47.90;22.80;;;2.40;99.90;;;;;;4177431;28;20809;-63
2021/10/31 01:48:14;;;;;;;50.27;23.20;;;2.40;99.90;;;;;;4189965;28;20667;-60
2021/10/31 01:50:37;;;;;;;48.70;24.37;;;2.30;99.90;;;;;;4188679;28;20277;-63
2021/10/31 01:52:44;;;;;;;49.20;23.07;;;2.30;99.90;;;;;;4189415;28;20289;-61
2021/10/31 01:54:52;;;;;;;53.17;23.30;;;2.30;99.90;;;;;;4188971;28;20339;-66
2021/10/31 01:56:59;;;;;;;45.43;22.13;;;2.20;99.90;;;;;;4189721;28;20314;-63
2021/10/31 01:59:17;;;;;;;51.57;23.53;;;2.20;99.90;;;;;;4188556;28;20780;-66
2021/10/31 02:01:19;;;;;;;52.03;26.13;;;2.10;99.90;;;;;;4189402;28;20269;-61
2021/10/31 02:03:21;;;;;;;60.03;27.37;;;2.00;99.90;;;;;;4189544;28;20859;-66
2021/10/31 02:05:27;;;;;;;60.13;28.00;;;2.00;99.90;;;;;;4189439;28;20275;-64
2021/10/31 02:07:29;;;;;;;67.23;31.97;;;2.00;99.90;;;;;;4188762;28;20277;-65
2021/10/31 02:09:33;;;;;;;75.50;35.10;;;2.00;99.90;;;;;;4187212;28;20273;-63
2021/10/31 02:11:37;;;;;;;78.97;35.73;;;2.00;99.90;;;;;;4172494;28;20587;-60
2021/10/31 02:13:40;;;;;;;83.73;35.27;;;2.00;99.90;;;;;;4173088;28;20274;-60
2021/10/31 02:15:43;;;;;;;73.97;34.97;;;2.10;99.90;;;;;;4171800;28;20319;-61
2021/10/31 02:17:52;;;;;;;74.33;31.40;;;2.10;99.90;;;;;;4172510;28;20270;-65
2021/10/31 02:19:55;;;;;;;59.17;27.87;;;2.00;99.90;;;;;;4172584;28;20843;-62
2021/10/31 02:22:00;;;;;;;64.10;27.07;;;2.00;99.90;;;;;;4172794;28;20649;-66
2021/10/31 02:24:03;;;;;;;53.03;26.60;;;2.00;99.90;;;;;;4179903;28;20323;-62
2021/10/31 02:26:04;;;;;;;52.53;23.73;;;2.00;99.90;;;;;;4189222;28;20326;-65
2021/10/31 02:28:06;;;;;;;54.23;25.70;;;2.00;99.90;;;;;;4186733;28;20254;-63
2021/10/31 02:30:08;;;;;;;51.10;24.90;;;2.00;99.90;;;;;;4189439;28;21133;-62
2021/10/31 02:32:09;;;;;;;41.77;21.30;;;1.90;99.90;;;;;;4187306;28;20265;-62
2021/10/31 02:34:10;;;;;;;48.13;22.13;;;1.90;99.90;;;;;;4189268;28;20829;-63
2021/10/31 02:36:11;;;;;;;38.33;20.10;;;1.90;99.90;;;;;;4188561;28;20261;-66
2021/10/31 02:38:13;;;;;;;44.17;22.13;;;1.90;99.90;;;;;;4188437;28;20307;-67
2021/10/31 02:40:18;;;;;;;43.83;22.40;;;1.90;99.90;;;;;;4189274;28;20334;-63
2021/10/31 02:42:19;;;;;;;47.80;24.07;;;1.90;99.90;;;;;;4188208;28;20281;-61
2021/10/31 02:44:20;;;;;;;56.30;25.17;;;1.80;99.90;;;;;;4189171;28;20273;-63
2021/10/31 02:46:22;;;;;;;52.67;24.47;;;1.70;99.90;;;;;;4188119;28;20330;-65
2021/10/31 02:48:23;;;;;;;60.03;28.47;;;1.60;99.90;;;;;;4189271;28;20266;-65
2021/10/31 02:50:32;;;;;;;67.20;29.33;;;1.60;99.90;;;;;;4188539;28;20257;-65
2021/10/31 02:53:06;;;;;;;51.07;23.70;;;1.50;99.90;;;;;;4188997;28;20605;-65
2021/10/31 02:55:31;;;;;;;45.77;21.53;;;1.40;99.90;;;;;;4188012;28;20741;-64
2021/10/31 02:58:03;;;;;;;45.13;21.00;;;1.30;99.90;;;;;;4188410;28;20318;-62
2021/10/31 03:00:07;;;;;;;48.43;22.87;;;1.20;99.90;;;;;;4181389;28;20467;-64
2021/10/31 03:02:10;;;;;;;43.23;22.73;;;1.10;99.90;;;;;;4171936;28;20815;-65
2021/10/31 03:04:12;;;;;;;57.40;24.60;;;1.10;99.90;;;;;;4172369;28;20840;-66
2021/10/31 03:06:13;;;;;;;52.27;24.17;;;1.00;99.90;;;;;;4172333;28;20312;-63
2021/10/31 03:08:14;;;;;;;54.53;24.80;;;1.00;99.90;;;;;;4171595;28;20280;-61
2021/10/31 03:10:16;;;;;;;54.10;25.53;;;1.00;99.90;;;;;;4171868;28;20278;-63
2021/10/31 03:12:19;;;;;;;55.37;25.37;;;1.10;99.90;;;;;;4171122;28;20292;-61
2021/10/31 03:14:20;;;;;;;48.83;23.40;;;1.10;99.90;;;;;;4172499;28;20335;-63
2021/10/31 03:16:21;;;;;;;50.40;22.30;;;1.00;99.90;;;;;;4171540;28;20360;-65
2021/10/31 03:18:23;;;;;;;54.93;26.50;;;1.00;99.90;;;;;;4172400;28;20324;-65
2021/10/31 03:20:24;;;;;;;46.87;24.27;;;1.00;99.90;;;;;;4171250;28;20300;-60
2021/10/31 03:22:25;;;;;;;48.23;24.03;;;1.00;99.90;;;;;;4172256;28;20812;-65
2021/10/31 03:24:26;;;;;;;44.20;23.07;;;0.90;99.90;;;;;;4170495;28;20331;-60
2021/10/31 03:26:27;;;;;;;45.13;22.77;;;0.90;99.90;;;;;;4186416;28;20281;-62
2021/10/31 03:28:29;;;;;;;47.63;20.30;;;0.90;99.90;;;;;;4190673;28;20833;-61
2021/10/31 03:30:30;;;;;;;41.63;22.03;;;0.90;99.90;;;;;;4192051;28;20319;-60
2021/10/31 03:32:31;;;;;;;41.77;21.03;;;0.90;99.90;;;;;;4191516;28;20754;-60
2021/10/31 03:34:33;;;;;;;51.40;23.10;;;0.80;99.90;;;;;;4191405;28;20269;-65
2021/10/31 03:36:34;;;;;;;51.77;23.60;;;0.60;99.90;;;;;;4191243;28;20285;-65
2021/10/31 03:38:35;;;;;;;58.53;27.53;;;0.60;99.90;;;;;;4191424;28;20675;-61
2021/10/31 03:40:36;;;;;;;58.47;30.03;;;0.50;99.90;;;;;;4192003;28;20303;-64
2021/10/31 03:42:38;;;;;;;70.70;31.23;;;0.50;99.90;;;;;;4191414;28;20822;-62
2021/10/31 03:44:48;;;;;;;64.97;30.60;;;0.50;99.90;;;;;;4191689;28;20708;-61
2021/10/31 03:46:49;;;;;;;63.63;29.03;;;0.60;99.90;;;;;;4189872;28;20273;-62
2021/10/31 03:48:50;;;;;;;54.20;26.77;;;0.70;99.90;;;;;;4191311;28;20273;-61
2021/10/31 03:50:53;;;;;;;67.53;29.47;;;0.70;99.90;;;;;;4176733;28;20274;-67
2021/10/31 03:52:55;;;;;;;58.93;26.80;;;0.60;99.90;;;;;;4175470;28;20348;-65
2021/10/31 03:54:56;;;;;;;58.27;27.47;;;0.60;99.90;;;;;;4174546;28;20263;-64
2021/10/31 03:56:57;;;;;;;59.53;26.90;;;0.60;99.90;;;;;;4174857;28;20274;-64
2021/10/31 03:58:59;;;;;;;53.67;26.10;;;0.60;99.90;;;;;;4174002;28;20347;-67
2021/10/31 04:01:01;;;;;;;56.90;27.30;;;0.60;99.90;;;;;;4174606;28;20747;-61
2021/10/31 04:03:03;;;;;;;60.27;26.97;;;0.60;99.90;;;;;;4175012;28;20274;-61
2021/10/31 04:05:09;;;;;;;54.30;28.33;;;0.50;99.90;;;;;;4174785;28;20320;-65
2021/10/31 04:07:10;;;;;;;67.27;28.97;;;0.40;99.90;;;;;;4174899;28;20274;-61
2021/10/31 04:09:11;;;;;;;66.63;30.07;;;0.30;99.90;;;;;;4174774;28;20266;-65
2021/10/31 04:11:12;;;;;;;71.30;30.83;;;0.30;99.90;;;;;;4174651;28;20332;-62
2021/10/31 04:13:13;;;;;;;62.10;28.83;;;0.20;99.90;;;;;;4174347;28;20270;-65
2021/10/31 04:15:15;;;;;;;71.30;29.57;;;0.10;99.90;;;;;;4180058;28;21268;-66
2021/10/31 04:17:17;;;;;;;67.07;32.93;;;0.10;99.90;;;;;;4191148;28;21216;-66
2021/10/31 04:19:18;;;;;;;58.53;29.97;;;0.00;99.90;;;;;;4190985;28;20366;-60
2021/10/31 04:21:19;;;;;;;68.13;30.80;;;-0.10;99.90;;;;;;4190451;28;20331;-67
2021/10/31 04:23:21;;;;;;;61.20;29.77;;;0.00;99.90;;;;;;4191113;28;20331;-63
2021/10/31 04:25:22;;;;;;;59.13;27.40;;;0.00;99.90;;;;;;4190608;28;20322;-63
2021/10/31 04:27:24;;;;;;;54.60;27.50;;;-0.10;99.90;;;;;;4190990;28;20299;-65
2021/10/31 04:29:25;;;;;;;60.00;28.63;;;-0.10;99.90;;;;;;4190225;28;20281;-63
2021/10/31 04:31:26;;;;;;;58.13;25.80;;;0.00;99.90;;;;;;4190408;28;20295;-65
2021/10/31 04:33:27;;;;;;;56.47;26.10;;;0.00;99.90;;;;;;4190878;28;20269;-60
2021/10/31 04:35:28;;;;;;;53.80;25.07;;;0.10;99.90;;;;;;4190467;28;20350;-65
2021/10/31 04:37:29;;;;;;;46.87;22.63;;;0.10;99.90;;;;;;4190234;28;20594;-66
2021/10/31 04:39:31;;;;;;;52.67;24.23;;;0.00;99.90;;;;;;4186355;28;20772;-61
2021/10/31 04:41:32;;;;;;;44.00;23.87;;;0.10;99.90;;;;;;4173903;28;20285;-66
2021/10/31 04:43:33;;;;;;;49.07;23.40;;;0.10;99.90;;;;;;4173261;28;20764;-63
2021/10/31 04:45:34;;;;;;;47.03;23.10;;;0.10;99.90;;;;;;4178907;28;20289;-65
2021/10/31 04:47:36;;;;;;;53.53;23.47;;;0.00;99.90;;;;;;4190395;28;20277;-68
2021/10/31 04:49:37;;;;;;;49.73;25.17;;;-0.10;99.90;;;;;;4190088;28;20274;-65
2021/10/31 04:51:40;;;;;;;59.70;27.20;;;-0.30;99.90;;;;;;4190258;28;20326;-61
2021/10/31 04:53:43;;;;;;;56.00;27.43;;;-0.40;99.90;;;;;;4177521;28;20280;-66
2021/10/31 04:55:44;;;;;;;71.20;30.50;;;-0.50;99.90;;;;;;4173095;28;20266;-65
2021/10/31 04:57:45;;;;;;;63.83;28.57;;;-0.60;99.90;;;;;;4174255;28;20319;-62
2021/10/31 04:59:46;;;;;;;62.17;28.10;;;-0.60;99.90;;;;;;4171965;28;20348;-62
2021/10/31 05:01:49;;;;;;;66.17;30.40;;;-0.60;99.90;;;;;;4173193;28;20320;-62
2021/10/31 05:03:50;;;;;;;63.37;30.80;;;-0.50;99.90;;;;;;4173852;28;20258;-61
2021/10/31 05:05:51;;;;;;;61.00;28.23;;;-0.50;99.90;;;;;;4174198;28;20258;-61
2021/10/31 05:07:55;;;;;;;64.30;31.43;;;-0.40;99.90;;;;;;4173415;28;20336;-62
2021/10/31 05:09:56;;;;;;;58.53;29.07;;;-0.40;99.90;;;;;;4180333;28;20354;-60
2021/10/31 05:11:57;;;;;;;60.40;27.90;;;-0.30;99.90;;;;;;4190353;28;20798;-63
2021/10/31 05:13:58;;;;;;;60.60;29.57;;;-0.30;99.90;;;;;;4189598;28;20281;-63
2021/10/31 05:15:59;;;;;;;62.93;29.67;;;-0.30;99.90;;;;;;4189793;28;20273;-61
2021/10/31 05:18:01;;;;;;;65.17;30.37;;;-0.30;99.90;;;;;;4189876;28;20840;-60
2021/10/31 05:20:03;;;;;;;82.23;37.50;;;-0.30;99.90;;;;;;4189478;28;20358;-63
2021/10/31 05:22:04;;;;;;;78.10;35.50;;;-0.20;99.90;;;;;;4189148;28;20672;-65
2021/10/31 05:24:06;;;;;;;64.63;31.20;;;-0.10;99.90;;;;;;4189777;28;20274;-63
2021/10/31 05:26:07;;;;;;;53.60;27.33;;;0.00;99.90;;;;;;4189363;28;20258;-63
2021/10/31 05:28:08;;;;;;;53.97;27.17;;;0.10;99.90;;;;;;4187794;28;20354;-60
2021/10/31 05:30:11;;;;;;;49.87;26.53;;;0.20;99.90;;;;;;4173114;28;20274;-59
2021/10/31 05:32:12;;;;;;;50.07;26.57;;;0.30;99.90;;;;;;4172965;28;20270;-64
2021/10/31 05:34:13;;;;;;;49.00;24.90;;;0.40;99.90;;;;;;4172699;28;20278;-59
2021/10/31 05:36:15;;;;;;;50.37;26.23;;;0.50;99.90;;;;;;4173284;28;20354;-63
2021/10/31 05:38:18;;;;;;;69.33;31.93;;;0.40;99.90;;;;;;4172797;28;20324;-64
2021/10/31 05:40:19;;;;;;;72.13;33.63;;;0.50;99.90;;;;;;4172455;28;20298;-62
2021/10/31 05:42:21;;;;;;;90.07;29.50;;;0.50;99.90;;;;;;4174404;28;20262;-62
2021/10/31 05:44:22;;;;;;;65.60;32.23;;;0.60;99.90;;;;;;4188838;28;20273;-61
2021/10/31 05:46:23;;;;;;;62.57;30.47;;;0.60;99.90;;;;;;4188488;28;20269;-61
2021/10/31 05:48:25;;;;;;;56.40;28.73;;;0.70;99.90;;;;;;4188064;28;20840;-63
2021/10/31 05:50:26;;;;;;;65.40;30.00;;;0.90;99.90;;;;;;4187872;28;20265;-62
2021/10/31 05:52:28;;;;;;;62.07;31.07;;;1.20;99.90;;;;;;4188285;28;20273;-62
2021/10/31 05:54:29;;;;;;;72.33;34.33;;;1.70;99.90;;;;;;4188729;28;20331;-64
2021/10/31 05:56:30;;;;;;;74.70;36.53;;;2.10;99.90;;;;;;4187339;28;20331;-62
2021/10/31 05:58:31;;;;;;;59.10;29.00;;;2.40;99.90;;;;;;4188894;28;20281;-61
2021/10/31 06:00:33;;;;;;;51.93;27.77;;;2.50;99.90;;;;;;4188588;28;20289;-62
2021/10/31 06:02:34;;;;;;;50.33;26.13;;;2.70;99.90;;;;;;4188818;28;20277;-62
2021/10/31 06:04:36;;;;;;;42.53;23.77;;;2.80;99.90;;;;;;4188743;28;20312;-61
2021/10/31 06:06:37;;;;;;;43.60;24.50;;;2.90;99.90;;;;;;4188738;28;20265;-63
2021/10/31 06:08:38;;;;;;;38.47;22.60;;;3.00;99.90;;;;;;4187085;28;20269;-62
2021/10/31 06:10:39;;;;;;;49.23;23.40;;;3.10;99.90;;;;;;4188972;28;20598;-63
2021/10/31 06:12:47;;;;;;;42.90;23.93;;;3.20;99.90;;;;;;4187987;28;20269;-62
2021/10/31 06:14:48;;;;;;;47.50;25.60;;;3.60;99.90;;;;;;4188967;28;20737;-67
2021/10/31 06:16:49;;;;;;;45.27;25.53;;;4.00;99.90;;;;;;4175664;28;20359;-66
2021/10/31 06:18:50;;;;;;;54.47;27.80;;;4.00;99.90;;;;;;4171632;28;20274;-64
2021/10/31 06:20:51;;;;;;;51.00;26.30;;;3.80;99.90;;;;;;4172107;28;20717;-64
2021/10/31 06:22:52;;;;;;;50.37;26.10;;;3.50;99.90;;;;;;4171969;28;20066;-66
2021/10/31 06:24:53;;;;;;;47.83;25.90;;;3.20;99.90;;;;;;4172010;28;20311;-61
2021/10/31 06:26:55;;;;;;;50.30;25.37;;;3.20;99.90;;;;;;4171977;28;20304;-63
2021/10/31 06:28:56;;;;;;;42.87;25.07;;;3.30;99.90;;;;;;4172098;28;20324;-65
2021/10/31 06:30:57;;;;;;;45.77;26.03;;;3.20;99.90;;;;;;4171575;28;20324;-66
2021/10/31 06:32:58;;;;;;;45.57;26.83;;;3.30;99.90;;;;;;4171523;28;20316;-64
2021/10/31 06:34:59;;;;;;;48.00;26.73;;;3.70;99.90;;;;;;4171214;28;20266;-63
2021/10/31 06:37:00;;;;;;;50.40;30.20;;;4.10;99.90;;;;;;4171966;28;20282;-64
2021/10/31 06:39:02;;;;;;;52.07;28.40;;;4.30;99.90;;;;;;4170886;28;20827;-65
2021/10/31 06:41:07;;;;;;;57.90;29.63;;;4.70;99.90;;;;;;4173881;28;20891;-66
2021/10/31 06:43:08;;;;;;;49.73;28.20;;;5.10;99.90;;;;;;4188283;28;20254;-65
2021/10/31 06:45:10;;;;;;;58.57;31.17;;;5.50;99.90;;;;;;4187802;28;20761;-66
2021/10/31 06:47:11;;;;;;;54.57;31.23;;;5.60;99.90;;;;;;4181576;28;20335;-63
2021/10/31 06:49:13;;;;;;;59.17;34.70;;;5.50;99.90;;;;;;4188100;28;20327;-65
2021/10/31 06:51:15;;;;;;;60.73;34.87;;;5.40;99.90;;;;;;4175315;28;20334;-64
2021/10/31 06:53:16;;;;;;;65.17;33.97;;;5.50;99.90;;;;;;4180799;28;20254;-66
2021/10/31 06:55:18;;;;;;;54.83;32.13;;;5.60;99.90;;;;;;4182781;28;20326;-61
2021/10/31 06:57:19;;;;;;;58.17;33.07;;;5.80;99.90;;;;;;4180051;28;20297;-60
2021/10/31 06:59:20;;;;;;;55.10;32.07;;;6.00;99.90;;;;;;4180046;28;20286;-63
2021/10/31 07:01:21;;;;;;;57.33;29.67;;;6.30;99.90;;;;;;4183737;28;21197;-64
2021/10/31 07:03:23;;;;;;;53.00;29.77;;;6.50;99.90;;;;;;4175088;28;20763;-63
2021/10/31 07:05:24;;;;;;;57.03;30.37;;;6.70;99.90;;;;;;4176253;28;20274;-65
2021/10/31 07:07:26;;;;;;;51.50;29.43;;;6.70;99.90;;;;;;4191543;28;20286;-63
2021/10/31 07:09:27;;;;;;;50.03;29.67;;;6.60;99.90;;;;;;4191146;28;21011;-58
2021/10/31 07:11:28;;;;;;;56.27;31.27;;;6.10;99.90;;;;;;4192113;28;20328;-63
2021/10/31 07:13:30;;;;;;;47.77;29.10;;;5.70;99.90;;;;;;4189031;28;20609;-61
2021/10/31 07:15:31;;;;;;;59.40;32.00;;;5.40;99.90;;;;;;4191504;28;20675;-63
2021/10/31 07:17:32;;;;;;;56.37;31.07;;;5.40;99.90;;;;;;4189499;28;20394;-65
2021/10/31 07:19:33;;;;;;;52.77;30.83;;;5.60;99.90;;;;;;4190050;28;20293;-65
2021/10/31 07:21:34;;;;;;;52.73;29.73;;;5.80;99.90;;;;;;4191585;28;20269;-63
2021/10/31 07:23:35;;;;;;;59.20;30.37;;;6.00;99.90;;;;;;4191010;28;20280;-62
2021/10/31 07:25:37;;;;;;;54.60;29.90;;;6.40;99.90;;;;;;4190648;28;20781;-61
2021/10/31 07:27:38;;;;;;;55.67;31.03;;;6.60;99.90;;;;;;4191073;28;20311;-63
2021/10/31 07:29:39;;;;;;;53.87;31.33;;;6.90;99.90;;;;;;4191243;28;20032;-63
2021/10/31 07:31:43;;;;;;;53.73;30.77;;;7.10;99.90;;;;;;4190793;28;20036;-63
2021/10/31 07:33:44;;;;;;;55.07;30.87;;;7.20;99.90;;;;;;4191991;28;20110;-64
2021/10/31 07:35:45;;;;;;;57.90;31.77;;;7.30;99.90;;;;;;4191273;28;20280;-64
2021/10/31 07:37:47;;;;;;;56.73;30.87;;;7.10;99.90;;;;;;4191162;28;20089;-64
2021/10/31 07:39:51;;;;;;;57.20;29.27;;;6.90;99.90;;;;;;4183816;28;20068;-62
2021/10/31 07:41:53;;;;;;;50.13;29.37;;;7.20;99.90;;;;;;4175080;28;20146;-64
2021/10/31 07:43:54;;;;;;;55.83;30.83;;;7.10;99.90;;;;;;4174721;28;20539;-64
2021/10/31 07:45:55;;;;;;;46.97;28.67;;;7.10;99.90;;;;;;4174894;28;20761;-63
2021/10/31 07:47:56;;;;;;;58.80;31.93;;;7.10;99.90;;;;;;4174201;28;20095;-64
2021/10/31 07:49:57;;;;;;;57.37;31.00;;;7.20;99.90;;;;;;4174767;28;20769;-61
2021/10/31 07:51:58;;;;;;;56.80;32.03;;;7.30;99.90;;;;;;4174283;28;20041;-61
2021/10/31 07:54:00;;;;;;;56.53;30.30;;;7.40;99.90;;;;;;4174544;28;20102;-62
2021/10/31 07:56:01;;;;;;;58.67;33.07;;;7.10;99.90;;;;;;4173853;28;20358;-62
2021/10/31 07:58:04;;;;;;;61.90;34.73;;;6.80;99.90;;;;;;4174599;28;20497;-62
2021/10/31 08:00:06;;;;;;;59.37;33.30;;;6.70;99.90;;;;;;4173924;28;20248;-61
2021/10/31 08:02:07;;;;;;;59.83;31.13;;;6.50;99.90;;;;;;4173924;28;20086;-62
2021/10/31 08:04:09;;;;;;;60.33;32.17;;;6.40;99.90;;;;;;4174281;28;20059;-62
2021/10/31 08:06:10;;;;;;;55.47;30.47;;;6.60;99.90;;;;;;4188015;28;20465;-64
2021/10/31 08:08:11;;;;;;;61.50;32.30;;;6.70;99.90;;;;;;4190362;28;20052;-62
2021/10/31 08:10:13;;;;;;;56.07;31.57;;;6.80;99.90;;;;;;4190680;28;20028;-66
2021/10/31 08:12:14;;;;;;;60.30;32.73;;;7.10;99.90;;;;;;4191291;28;20097;-63
2021/10/31 08:14:15;;;;;;;61.03;33.37;;;7.30;99.90;;;;;;4188790;28;20056;-61
2021/10/31 08:16:16;;;;;;;53.23;31.20;;;7.80;99.90;;;;;;4190625;28;20085;-64
2021/10/31 08:18:18;;;;;;;61.07;31.30;;;8.00;99.90;;;;;;4189967;28;20024;-64
2021/10/31 08:20:19;;;;;;;57.23;31.10;;;8.20;99.90;;;;;;4190556;28;20367;-62
2021/10/31 08:22:20;;;;;;;59.27;30.63;;;8.30;99.90;;;;;;4190107;28;20045;-62
2021/10/31 08:24:21;;;;;;;56.80;31.93;;;8.30;99.90;;;;;;4190826;28;20028;-66
2021/10/31 08:26:23;;;;;;;60.33;32.10;;;8.30;99.90;;;;;;4190260;28;20506;-62
2021/10/31 08:28:24;;;;;;;52.07;30.67;;;8.20;99.90;;;;;;4190711;28;20036;-68
2021/10/31 08:30:30;;;;;;;53.03;29.30;;;8.10;99.90;;;;;;4185391;28;20045;-61
2021/10/31 08:32:45;;;;;;;48.43;26.40;;;8.00;99.90;;;;;;4175246;28;20041;-61
2021/10/31 08:34:46;;;;;;;46.73;24.83;;;8.00;99.90;;;;;;4179549;28;20522;-59
2021/10/31 08:36:47;;;;;;;44.90;24.60;;;8.10;99.90;;;;;;4180680;28;20078;-62
2021/10/31 08:38:49;;;;;;;44.57;25.27;;;8.20;99.90;;;;;;4187945;28;20048;-61
2021/10/31 08:40:53;;;;;;;51.50;25.30;;;8.10;99.90;;;;;;4189389;28;20075;-62
2021/10/31 08:42:54;;;;;;;45.97;25.70;;;7.90;99.90;;;;;;4183240;28;20029;-63
2021/10/31 08:44:56;;;;;;;45.50;24.63;;;7.90;99.90;;;;;;4173546;28;20094;-60
2021/10/31 08:46:57;;;;;;;50.00;25.53;;;8.00;99.90;;;;;;4178479;28;20044;-62
2021/10/31 08:48:58;;;;;;;45.77;24.80;;;7.90;99.90;;;;;;4183733;28;20045;-63
2021/10/31 08:51:00;;;;;;;43.03;23.70;;;7.90;99.90;;;;;;4185928;28;20445;-61
2021/10/31 08:53:03;;;;;;;47.80;24.83;;;8.00;99.90;;;;;;4184437;28;20049;-62
2021/10/31 08:55:05;;;;;;;45.67;26.20;;;8.30;99.90;;;;;;4189506;28;20145;-66
2021/10/31 08:57:07;;;;;;;43.90;25.23;;;8.40;99.90;;;;;;4189149;28;20044;-65
2021/10/31 08:59:08;;;;;;;44.97;24.63;;;8.40;99.90;;;;;;4189492;28;20037;-63
2021/10/31 09:01:11;;;;;;;47.07;25.67;;;8.50;99.90;;;;;;4188418;28;20053;-62
2021/10/31 09:03:12;;;;;;;45.50;26.77;;;8.70;99.90;;;;;;4190146;28;20538;-65
2021/10/31 09:05:14;;;;;;;47.70;26.17;;;8.90;99.90;;;;;;4189547;28;20082;-63
2021/10/31 09:07:15;;;;;;;46.57;25.77;;;8.90;99.90;;;;;;4190163;28;20435;-63
2021/10/31 09:09:19;;;;;;;47.47;27.33;;;8.90;99.90;;;;;;4189714;28;20032;-63
2021/10/31 09:11:20;;;;;;;46.63;27.23;;;9.00;99.90;;;;;;4189610;28;20056;-61
2021/10/31 09:13:23;;;;;;;48.43;28.20;;;9.10;99.90;;;;;;4189766;28;20080;-63
2021/10/31 09:15:24;;;;;;;51.23;26.03;;;9.30;99.90;;;;;;4189358;28;20380;-63
2021/10/31 09:17:26;;;;;;;55.37;27.10;;;9.30;99.90;;;;;;4189021;28;20044;-62
2021/10/31 09:19:27;;;;;;;46.70;26.47;;;9.40;99.90;;;;;;4173731;28;20095;-60
2021/10/31 09:21:28;;;;;;;47.50;26.87;;;9.40;99.90;;;;;;4154416;28;20472;-62
2021/10/31 09:23:29;;;;;;;50.47;26.60;;;9.60;99.90;;;;;;4181079;28;20021;-64
2021/10/31 09:25:31;;;;;;;45.63;25.50;;;9.70;99.90;;;;;;4171675;28;20102;-63
2021/10/31 09:27:32;;;;;;;45.57;25.17;;;9.60;99.90;;;;;;4172806;28;20033;-63
2021/10/31 09:29:34;;;;;;;44.80;24.17;;;9.50;99.90;;;;;;4172850;28;20087;-63
2021/10/31 09:31:35;;;;;;;40.00;24.17;;;9.50;99.90;;;;;;4172064;28;20049;-62
2021/10/31 09:33:38;;;;;;;42.80;23.23;;;9.50;99.90;;;;;;4172730;28;20083;-62
2021/10/31 09:35:47;;;;;;;44.87;25.47;;;9.60;99.90;;;;;;4172792;28;20750;-65
2021/10/31 09:37:52;;;;;;;54.43;27.10;;;9.60;99.90;;;;;;4172917;28;20095;-59
2021/10/31 09:39:53;;;;;;;44.77;24.33;;;9.80;99.90;;;;;;4172230;28;20036;-62
2021/10/31 09:41:54;;;;;;;40.97;23.47;;;9.90;99.90;;;;;;4172754;28;20431;-62
2021/10/31 09:44:04;;;;;;;43.60;24.03;;;9.90;99.90;;;;;;4171490;28;20090;-62
2021/10/31 09:46:06;;;;;;;38.80;22.50;;;10.00;99.90;;;;;;4172129;28;20431;-63
2021/10/31 09:48:13;;;;;;;38.80;21.40;;;10.10;99.90;;;;;;4172352;28;20095;-62
2021/10/31 09:50:14;;;;;;;42.43;22.63;;;10.10;99.90;;;;;;4170983;28;20037;-64
2021/10/31 09:52:16;;;;;;;40.53;22.77;;;10.10;99.90;;;;;;4170533;28;20074;-63
2021/10/31 09:54:17;;;;;;;39.77;21.37;;;10.20;99.90;;;;;;4172386;28;20101;-62
2021/10/31 09:56:19;;;;;;;38.63;21.43;;;10.20;99.90;;;;;;4172189;28;20074;-63
2021/10/31 09:58:23;;;;;;;34.07;20.17;;;10.30;99.90;;;;;;4171887;28;20037;-67
2021/10/31 10:00:39;;;;;;;36.87;20.70;;;10.40;99.90;;;;;;4171992;28;20045;-63
2021/10/31 10:05:00;;;;;;;36.20;20.10;;;10.40;99.90;;;;;;4171510;28;20083;-63
2021/10/31 10:07:04;;;;;;;38.10;19.97;;;10.50;99.90;;;;;;4172322;28;20114;-62
2021/10/31 10:09:08;;;;;;;41.57;20.73;;;10.70;99.90;;;;;;4172832;28;20045;-62
2021/10/31 10:11:19;;;;;;;31.37;18.60;;;10.80;99.90;;;;;;4172488;28;20555;-62
2021/10/31 10:13:26;;;;;;;35.75;19.85;;;10.80;99.90;;;;;;4188383;28;20117;-61
2021/10/31 10:15:27;;;;;;;32.37;19.60;;;10.90;99.90;;;;;;4187763;28;20021;-63
2021/10/31 10:17:48;;;;;;;29.73;17.80;;;11.00;99.90;;;;;;4182245;28;20541;-63
2021/10/31 10:20:00;;;;;;;30.63;17.23;;;11.10;99.90;;;;;;4178047;28;20025;-59
2021/10/31 10:22:01;;;;;;;29.83;17.77;;;11.10;99.90;;;;;;4176152;28;20114;-61
2021/10/31 10:24:08;;;;;;;33.43;17.90;;;11.20;99.90;;;;;;4184082;28;20025;-62
2021/10/31 10:26:09;;;;;;;30.70;17.67;;;11.30;99.90;;;;;;4180961;28;20044;-64
2021/10/31 10:28:28;;;;;;;29.03;16.47;;;11.30;99.90;;;;;;4175112;28;20037;-63
2021/10/31 10:30:30;;;;;;;28.30;15.83;;;11.30;99.90;;;;;;4184235;28;20036;-63
2021/10/31 10:32:31;;;;;;;27.03;16.73;;;11.30;99.90;;;;;;4174975;28;20450;-61
2021/10/31 10:34:41;;;;;;;29.33;16.57;;;11.40;99.90;;;;;;4172740;28;20083;-61
2021/10/31 10:36:47;;;;;;;28.95;16.90;;;11.40;99.90;;;;;;4171604;28;20370;-62